Pagina principale
METAR-TAF:

METAR-TAF

Aeroporti :

Chongqing, Cina

latitudine: 29-31N, longitudine: 106-29E, altezza: 351 m

Osservazione

Il bollettino è stato emesso 26 minuti fa, alle 12:00 UTC
Vento 4 kt da est/sud-est
Temperature 10°C
Umidità 93%
Pressione 1028 hPa
Visibilità: 2700 m
Nubi sparse ad un'altezza di 2600 ft
foschia

METAR: ZUCK 211200Z 12002MPS 2700 BR SCT026 10/09 Q1028 NOSIG

Ora: 20:26 (12:26 UTC)

Previsione

Il bollettino è stato emesso 3 ore e 24 minuti fa, alle 09:02 UTC
Previsione valida dal 21 alle 12 UTC al 22 alle 12 UTC
Vento 6 kt da sud/sud-ovest
Visibilità: 3000 m
Cielo coperto ad un'altezza di 4000 ft
foschia

TAF: ZUCK 210902Z 2112/2212 20003MPS 3000 BR OVC040 TX11/2207Z TN08/2122Z

Osservazioni e previsioni meteorologiche di più di 4000 aeroporti (messaggi METAR e TAF).

Le stazioni disponibili sono rappresentate dai dischi gialli e rossi sulla carta.

Puntare il mouse per vedere il nome della stazione.

Clicca sopra per visualizzare le osservazioni e previsioni meteorologiche.

Per cambiare la mappa : fare clic sui pulsanti verdi con una croce nera per ingrandire, il pulsante verde con un trattino per diminuire, o sulla freccia verde per le mappe adiacenti.


METAR-TAF: